Time;durP1;ratioP1;P1;durP2;ratioP2;P2;SDS_P1;SDS_P2;PMS_P1;PMS_P2;Temp;Humidity;BMP_temperature;BMP_pressure;BME280_temperature;BME280_humidity;BME280_pressure;Samples;Min_cycle;Max_cycle;Signal;HPM_P1;HPM_P2
2023/09/30 00:00:15;;;;;;;;;;;11.30;99.90;;;;;;5103750;28;20011;-74
2023/09/30 00:02:41;;;;;;;;;;;11.30;99.90;;;;;;5098656;27;20047;-73
2023/09/30 00:05:08;;;;;;;;;;;11.30;99.90;;;;;;5077988;28;20361;-74
2023/09/30 00:07:37;;;;;;;;;;;11.30;99.90;;;;;;5090634;28;19973;-74
2023/09/30 00:10:03;;;;;;;;;;;11.30;99.90;;;;;;5099688;28;19963;-74
2023/09/30 00:12:28;;;;;;;;;;;11.30;99.90;;;;;;5102447;28;19924;-74
2023/09/30 00:14:54;;;;;;;;;;;11.30;99.90;;;;;;5084986;28;19969;-73
2023/09/30 00:17:20;;;;;;;;;;;11.30;99.90;;;;;;5102619;28;19934;-74
2023/09/30 00:19:46;;;;;;;;;;;11.30;99.90;;;;;;5094743;28;20030;-74
2023/09/30 00:22:11;;;;;;;;;;;11.30;99.90;;;;;;5126959;27;19931;-74
2023/09/30 00:24:37;;;;;;;;;;;11.30;99.90;;;;;;5094686;28;20082;-74
2023/09/30 00:27:02;;;;;;;;;;;11.30;99.90;;;;;;5091449;28;20395;-73
2023/09/30 00:29:28;;;;;;;;;;;11.40;99.90;;;;;;5102835;28;19924;-74
2023/09/30 00:31:53;;;;;;;;;;;11.40;99.90;;;;;;5100712;28;19927;-74
2023/09/30 00:34:19;;;;;;;;;;;11.50;99.90;;;;;;5083609;28;20393;-74
2023/09/30 00:36:45;;;;;;;;;;;11.50;99.90;;;;;;5095105;28;19932;-74
2023/09/30 00:39:10;;;;;;;;;;;11.50;99.90;;;;;;5097120;28;20314;-74
2023/09/30 00:41:38;;;;;;;;;;;11.60;99.90;;;;;;5085457;28;19923;-74
2023/09/30 00:44:04;;;;;;;;;;;11.60;99.90;;;;;;5098962;28;19951;-74
2023/09/30 00:46:31;;;;;;;;;;;11.60;99.90;;;;;;5099903;27;19923;-74
2023/09/30 00:48:58;;;;;;;;;;;11.60;99.90;;;;;;5101308;28;19924;-74
2023/09/30 00:51:24;;;;;;;;;;;11.60;99.90;;;;;;5087441;28;19931;-74
2023/09/30 00:53:51;;;;;;;;;;;11.60;99.90;;;;;;5096728;28;19962;-74
2023/09/30 00:56:22;;;;;;;;;;;11.50;99.90;;;;;;5083825;28;19927;-74
2023/09/30 00:58:51;;;;;;;;;;;11.50;99.90;;;;;;5101111;28;19924;-73
2023/09/30 01:01:17;;;;;;;;;;;11.60;99.90;;;;;;5100575;27;19928;-73
2023/09/30 01:03:43;;;;;;;;;;;11.60;99.90;;;;;;5087504;28;20022;-72
2023/09/30 01:06:09;;;;;;;;;;;11.60;99.90;;;;;;5104127;28;20449;-73
2023/09/30 01:08:35;;;;;;;;;;;11.60;99.90;;;;;;5100970;27;19928;-73
2023/09/30 01:11:01;;;;;;;;;;;11.70;99.90;;;;;;5100024;28;19935;-73
2023/09/30 01:13:34;;;;;;;;;;;11.70;99.90;;;;;;5104267;28;19942;-73
2023/09/30 01:16:09;;;;;;;;;;;11.70;99.90;;;;;;5083701;27;20299;-73
2023/09/30 01:18:35;;;;;;;;;;;11.70;99.90;;;;;;5085801;28;19943;-73
2023/09/30 01:21:03;;;;;;;;;;;11.70;99.90;;;;;;5103000;27;20061;-73
2023/09/30 01:23:29;;;;;;;;;;;11.70;99.90;;;;;;5088463;28;20043;-73
2023/09/30 01:25:55;;;;;;;;;;;11.80;99.90;;;;;;5135519;27;19938;-73
2023/09/30 01:28:21;;;;;;;;;;;11.80;99.90;;;;;;5079959;28;19927;-73
2023/09/30 01:30:46;;;;;;;;;;;11.80;99.90;;;;;;5084438;28;19941;-73
2023/09/30 01:33:12;;;;;;;;;;;11.80;99.90;;;;;;5097730;28;19978;-73
2023/09/30 01:35:38;;;;;;;;;;;11.80;99.90;;;;;;5117287;27;19924;-73
2023/09/30 01:38:03;;;;;;;;;;;11.80;99.90;;;;;;5098388;28;20547;-73
2023/09/30 01:40:29;;;;;;;;;;;11.80;99.90;;;;;;5102820;28;19928;-73
2023/09/30 01:42:58;;;;;;;;;;;11.80;99.90;;;;;;5135235;27;19931;-73
2023/09/30 01:45:24;;;;;;;;;;;11.80;99.90;;;;;;5097127;28;19985;-76
2023/09/30 01:47:49;;;;;;;;;;;11.80;99.90;;;;;;5101901;28;19959;-76
2023/09/30 01:50:18;;;;;;;;;;;11.80;99.90;;;;;;5086167;28;19928;-78
2023/09/30 01:52:44;;;;;;;;;;;11.80;99.90;;;;;;5128187;27;19946;-76
2023/09/30 01:55:11;;;;;;;;;;;11.80;99.90;;;;;;5113997;27;19930;-77
2023/09/30 01:57:36;;;;;;;;;;;11.80;99.90;;;;;;5112762;27;19931;-77
2023/09/30 02:00:02;;;;;;;;;;;11.80;99.90;;;;;;5098071;28;19923;-76
2023/09/30 02:02:28;;;;;;;;;;;11.70;99.90;;;;;;5092950;28;20518;-77
2023/09/30 02:04:54;;;;;;;;;;;11.70;99.90;;;;;;5097887;28;20056;-76
2023/09/30 02:07:19;;;;;;;;;;;11.70;99.90;;;;;;5094826;28;19939;-77
2023/09/30 02:09:45;;;;;;;;;;;11.70;99.90;;;;;;5098572;28;19924;-76
2023/09/30 02:12:10;;;;;;;;;;;11.70;99.90;;;;;;5090188;28;19934;-76
2023/09/30 02:14:38;;;;;;;;;;;11.70;99.90;;;;;;5131628;27;19927;-77
2023/09/30 02:17:04;;;;;;;;;;;11.70;99.90;;;;;;5078501;28;21181;-77
2023/09/30 02:19:31;;;;;;;;;;;11.70;99.90;;;;;;5097914;28;20394;-76
2023/09/30 02:21:57;;;;;;;;;;;11.70;99.90;;;;;;5099408;28;20038;-77
2023/09/30 02:24:23;;;;;;;;;;;11.70;99.90;;;;;;5112094;27;20089;-76
2023/09/30 02:26:48;;;;;;;;;;;11.60;99.90;;;;;;5080922;28;19986;-76
2023/09/30 02:29:14;;;;;;;;;;;11.60;99.90;;;;;;5094221;28;20428;-77
2023/09/30 02:31:43;;;;;;;;;;;11.60;99.90;;;;;;5099104;28;19932;-76
2023/09/30 02:34:11;;;;;;;;;;;11.60;99.90;;;;;;5095651;28;19963;-76
2023/09/30 02:36:38;;;;;;;;;;;11.50;99.90;;;;;;5080140;28;21436;-77
2023/09/30 02:39:04;;;;;;;;;;;11.60;99.90;;;;;;5096972;28;21776;-76
2023/09/30 02:41:30;;;;;;;;;;;11.60;99.90;;;;;;5099397;28;20027;-73
2023/09/30 02:43:55;;;;;;;;;;;11.60;99.90;;;;;;5096714;28;20499;-73
2023/09/30 02:46:21;;;;;;;;;;;11.60;99.90;;;;;;5114203;27;19951;-73
2023/09/30 02:48:47;;;;;;;;;;;11.60;99.90;;;;;;5115272;27;20431;-73
2023/09/30 02:51:12;;;;;;;;;;;11.60;99.90;;;;;;5113493;27;20239;-73
2023/09/30 02:53:41;;;;;;;;;;;11.60;99.90;;;;;;5097268;28;19935;-73
2023/09/30 02:56:07;;;;;;;;;;;11.60;99.90;;;;;;5097509;28;19923;-73
2023/09/30 02:58:32;;;;;;;;;;;11.60;99.90;;;;;;5080648;28;19979;-73
2023/09/30 03:00:59;;;;;;;;;;;11.60;99.90;;;;;;5081575;28;19939;-73
2023/09/30 03:03:25;;;;;;;;;;;11.60;99.90;;;;;;5110464;27;20952;-73
2023/09/30 03:05:51;;;;;;;;;;;11.50;99.90;;;;;;5096275;28;20428;-73
2023/09/30 03:08:17;;;;;;;;;;;11.50;99.90;;;;;;5096260;28;19924;-73
2023/09/30 03:10:43;;;;;;;;;;;11.50;99.90;;;;;;5097167;28;19969;-74
2023/09/30 03:13:08;;;;;;;;;;;11.50;99.90;;;;;;5098193;28;19924;-73
2023/09/30 03:15:38;;;;;;;;;;;11.50;99.90;;;;;;5096293;28;19975;-74
2023/09/30 03:18:04;;;;;;;;;;;11.50;99.90;;;;;;5081098;28;19927;-74
2023/09/30 03:20:30;;;;;;;;;;;11.50;99.90;;;;;;5095272;28;19924;-74
2023/09/30 03:22:56;;;;;;;;;;;11.50;99.90;;;;;;5096308;28;20275;-74
2023/09/30 03:25:22;;;;;;;;;;;11.50;99.90;;;;;;5097452;28;19934;-73
2023/09/30 03:27:51;;;;;;;;;;;11.50;99.90;;;;;;5111715;27;19924;-74
2023/09/30 03:30:19;;;;;;;;;;;11.50;99.90;;;;;;5130718;27;19928;-74
2023/09/30 03:32:45;;;;;;;;;;;11.60;99.90;;;;;;5096275;28;20263;-74
2023/09/30 03:35:14;;;;;;;;;;;11.50;99.90;;;;;;5079468;28;19939;-74
2023/09/30 03:37:41;;;;;;;;;;;11.50;99.90;;;;;;5096509;28;19924;-74
2023/09/30 03:40:12;;;;;;;;;;;11.50;99.90;;;;;;5082037;28;19931;-74
2023/09/30 03:42:39;;;;;;;;;;;11.50;99.90;;;;;;5080192;28;20005;-75
2023/09/30 03:45:07;;;;;;;;;;;11.50;99.90;;;;;;5097276;28;19947;-74
2023/09/30 03:47:34;;;;;;;;;;;11.50;99.90;;;;;;5096189;28;20187;-75
2023/09/30 03:50:04;;;;;;;;;;;11.50;99.90;;;;;;5113553;27;20408;-75
2023/09/30 03:52:32;;;;;;;;;;;11.50;99.90;;;;;;5097496;28;19936;-74
2023/09/30 03:54:59;;;;;;;;;;;11.50;99.90;;;;;;5099069;28;19988;-77
2023/09/30 03:57:25;;;;;;;;;;;11.50;99.90;;;;;;5093897;28;20428;-77
2023/09/30 03:59:50;;;;;;;;;;;11.50;99.90;;;;;;5097177;28;19924;-77
2023/09/30 04:02:16;;;;;;;;;;;11.60;99.90;;;;;;5096899;28;20394;-77
2023/09/30 04:04:42;;;;;;;;;;;11.50;99.90;;;;;;5098966;28;19928;-77
2023/09/30 04:07:09;;;;;;;;;;;11.50;99.90;;;;;;5093260;28;19938;-77
2023/09/30 04:09:36;;;;;;;;;;;11.50;99.90;;;;;;5101462;28;20347;-77
2023/09/30 04:12:01;;;;;;;;;;;11.50;99.90;;;;;;5098591;28;19931;-74
2023/09/30 04:14:27;;;;;;;;;;;11.50;99.90;;;;;;5099949;28;20052;-75
2023/09/30 04:16:54;;;;;;;;;;;11.50;99.90;;;;;;5099982;28;22491;-75
2023/09/30 04:19:20;;;;;;;;;;;11.50;99.90;;;;;;5101616;28;19953;-74
2023/09/30 04:21:46;;;;;;;;;;;11.50;99.90;;;;;;5115234;27;19932;-75
2023/09/30 04:24:12;;;;;;;;;;;11.50;99.90;;;;;;5084367;28;19975;-74
2023/09/30 04:26:38;;;;;;;;;;;11.50;99.90;;;;;;5098776;28;20031;-74
2023/09/30 04:29:04;;;;;;;;;;;11.50;99.90;;;;;;5099349;28;20436;-74
2023/09/30 04:31:30;;;;;;;;;;;11.50;99.90;;;;;;5100800;28;20009;-74
2023/09/30 04:33:57;;;;;;;;;;;11.50;99.90;;;;;;5099469;27;19973;-74
2023/09/30 04:36:23;;;;;;;;;;;11.50;99.90;;;;;;5080039;28;19923;-74
2023/09/30 04:38:49;;;;;;;;;;;11.40;99.90;;;;;;5082845;28;19977;-75
2023/09/30 04:41:15;;;;;;;;;;;11.40;99.90;;;;;;5114370;27;19930;-75
2023/09/30 04:43:43;;;;;;;;;;;11.40;99.90;;;;;;5099433;28;19977;-75
2023/09/30 04:46:09;;;;;;;;;;;11.40;99.90;;;;;;5084714;28;20266;-75
2023/09/30 04:48:34;;;;;;;;;;;11.40;99.90;;;;;;5097541;28;20034;-74
2023/09/30 04:51:04;;;;;;;;;;;11.40;99.90;;;;;;5083806;28;20914;-74
2023/09/30 04:53:30;;;;;;;;;;;11.40;99.90;;;;;;5098135;27;19931;-75
2023/09/30 04:55:56;;;;;;;;;;;11.40;99.90;;;;;;5081988;28;19932;-75
2023/09/30 04:58:22;;;;;;;;;;;11.40;99.90;;;;;;5097943;28;20411;-74
2023/09/30 05:00:47;;;;;;;;;;;11.40;99.90;;;;;;5100477;28;19931;-75
2023/09/30 05:03:13;;;;;;;;;;;11.40;99.90;;;;;;5096275;27;19927;-75
2023/09/30 05:05:38;;;;;;;;;;;11.40;99.90;;;;;;5117205;27;19963;-75
2023/09/30 05:08:06;;;;;;;;;;;11.40;99.90;;;;;;5094786;28;19931;-75
2023/09/30 05:10:31;;;;;;;;;;;11.40;99.90;;;;;;5116679;27;20434;-74
2023/09/30 05:12:57;;;;;;;;;;;11.40;99.90;;;;;;5080318;28;20587;-74
2023/09/30 05:15:23;;;;;;;;;;;11.40;99.90;;;;;;5113432;27;19930;-75
2023/09/30 05:17:48;;;;;;;;;;;11.40;99.90;;;;;;5096041;28;19923;-75
2023/09/30 05:20:17;;;;;;;;;;;11.50;99.90;;;;;;5132670;27;19932;-75
2023/09/30 05:22:45;;;;;;;;;;;11.50;99.90;;;;;;5082411;28;20695;-75
2023/09/30 05:25:11;;;;;;;;;;;11.50;99.90;;;;;;5097234;28;19930;-74
2023/09/30 05:27:37;;;;;;;;;;;11.50;99.90;;;;;;5101621;28;19924;-75
2023/09/30 05:30:05;;;;;;;;;;;11.50;99.90;;;;;;5096214;28;19942;-75
2023/09/30 05:32:31;;;;;;;;;;;11.50;99.90;;;;;;5083129;28;19923;-75
2023/09/30 05:34:57;;;;;;;;;;;11.50;99.90;;;;;;5099246;28;20482;-74
2023/09/30 05:37:23;;;;;;;;;;;11.50;99.90;;;;;;5112802;27;19935;-77
2023/09/30 05:39:49;;;;;;;;;;;11.40;99.90;;;;;;5101097;28;19924;-77
2023/09/30 05:42:18;;;;;;;;;;;11.40;99.90;;;;;;5096544;28;20369;-77
2023/09/30 05:44:44;;;;;;;;;;;11.30;99.90;;;;;;5131954;27;19927;-77
2023/09/30 05:47:10;;;;;;;;;;;11.30;99.90;;;;;;5131767;27;19938;-77
2023/09/30 05:49:36;;;;;;;;;;;11.30;99.90;;;;;;5082170;28;19945;-77
2023/09/30 05:52:02;;;;;;;;;;;11.30;99.90;;;;;;5079287;28;20287;-77
2023/09/30 05:54:28;;;;;;;;;;;11.30;99.90;;;;;;5099966;28;20361;-77
2023/09/30 05:56:54;;;;;;;;;;;11.30;99.90;;;;;;5097186;28;20008;-77
2023/09/30 05:59:20;;;;;;;;;;;11.30;99.90;;;;;;5097390;28;19927;-77
2023/09/30 06:01:46;;;;;;;;;;;11.30;99.90;;;;;;5098603;27;20263;-77
2023/09/30 06:04:12;;;;;;;;;;;11.30;99.90;;;;;;5110818;27;19969;-77
2023/09/30 06:06:38;;;;;;;;;;;11.20;99.90;;;;;;5097608;28;20006;-78
2023/09/30 06:09:07;;;;;;;;;;;11.20;99.90;;;;;;5114513;27;20349;-78
2023/09/30 06:11:33;;;;;;;;;;;11.20;99.90;;;;;;5128717;27;19959;-77
2023/09/30 06:14:00;;;;;;;;;;;11.20;99.90;;;;;;5131359;27;20358;-77
2023/09/30 06:16:26;;;;;;;;;;;11.20;99.90;;;;;;5096432;28;20378;-77
2023/09/30 06:18:53;;;;;;;;;;;11.20;99.90;;;;;;5080065;28;19930;-77
2023/09/30 06:21:21;;;;;;;;;;;11.20;99.90;;;;;;5095614;28;20375;-78
2023/09/30 06:23:53;;;;;;;;;;;11.30;99.90;;;;;;5098270;28;20294;-77
2023/09/30 06:26:18;;;;;;;;;;;11.20;99.90;;;;;;5094408;28;19930;-77
2023/09/30 06:28:45;;;;;;;;;;;11.20;99.90;;;;;;5097395;28;19931;-77
2023/09/30 06:31:11;;;;;;;;;;;11.30;99.90;;;;;;5095341;28;20009;-76
2023/09/30 06:33:38;;;;;;;;;;;11.30;99.90;;;;;;5077345;28;19974;-77
2023/09/30 06:36:16;;;;;;;;;;;11.30;99.90;;;;;;5080325;28;20060;-77
2023/09/30 06:38:43;;;;;;;;;;;11.30;99.90;;;;;;5097632;28;19928;-77
2023/09/30 06:41:09;;;;;;;;;;;11.30;99.90;;;;;;5099895;28;19985;-77
2023/09/30 06:43:35;;;;;;;;;;;11.40;99.90;;;;;;5079332;28;19932;-77
2023/09/30 06:46:11;;;;;;;;;;;11.40;99.90;;;;;;5082213;28;19923;-77
2023/09/30 06:48:37;;;;;;;;;;;11.40;99.90;;;;;;5094705;27;19923;-77
2023/09/30 06:51:03;;;;;;;;;;;11.40;99.90;;;;;;5097341;28;19984;-77
2023/09/30 06:53:28;;;;;;;;;;;11.50;99.90;;;;;;5096291;28;20104;-77
2023/09/30 06:55:54;;;;;;;;;;;11.50;99.90;;;;;;5128344;27;19931;-76
2023/09/30 06:58:22;;;;;;;;;;;11.50;99.90;;;;;;5113155;27;19939;-77
2023/09/30 07:00:51;;;;;;;;;;;11.50;99.90;;;;;;5098009;28;20006;-77
2023/09/30 07:03:19;;;;;;;;;;;11.60;99.90;;;;;;5081892;28;20335;-78
2023/09/30 07:05:45;;;;;;;;;;;11.60;99.90;;;;;;5080067;28;20342;-77
2023/09/30 07:08:10;;;;;;;;;;;11.70;99.90;;;;;;5079660;28;20037;-77
2023/09/30 07:10:36;;;;;;;;;;;11.70;99.90;;;;;;5112541;27;19932;-76
2023/09/30 07:13:03;;;;;;;;;;;11.70;99.90;;;;;;5094473;28;19924;-77
2023/09/30 07:15:29;;;;;;;;;;;11.80;99.90;;;;;;5099027;28;19927;-74
2023/09/30 07:17:54;;;;;;;;;;;11.90;99.90;;;;;;5098153;28;19954;-74
2023/09/30 07:20:22;;;;;;;;;;;11.90;99.90;;;;;;5079980;28;19924;-74
2023/09/30 07:22:48;;;;;;;;;;;12.00;99.90;;;;;;5115814;27;20294;-74
2023/09/30 07:25:16;;;;;;;;;;;12.00;99.90;;;;;;5095958;28;20180;-75
2023/09/30 07:27:42;;;;;;;;;;;12.10;99.90;;;;;;5096156;28;19924;-74
2023/09/30 07:30:09;;;;;;;;;;;12.20;99.90;;;;;;5096014;28;19932;-73
2023/09/30 07:32:35;;;;;;;;;;;12.30;99.90;;;;;;5115523;27;19940;-74
2023/09/30 07:35:01;;;;;;;;;;;12.40;99.90;;;;;;5097919;28;19981;-73
2023/09/30 07:37:27;;;;;;;;;;;12.50;99.90;;;;;;5096029;28;19995;-73
2023/09/30 07:39:52;;;;;;;;;;;12.50;99.90;;;;;;5112308;27;19924;-73
2023/09/30 07:42:18;;;;;;;;;;;12.70;99.90;;;;;;5078823;28;19930;-74
2023/09/30 07:44:43;;;;;;;;;;;12.80;99.90;;;;;;5117687;27;19946;-74
2023/09/30 07:47:09;;;;;;;;;;;12.90;99.90;;;;;;5099289;28;20891;-74
2023/09/30 07:49:35;;;;;;;;;;;13.10;99.90;;;;;;5104273;28;19931;-74
2023/09/30 07:52:00;;;;;;;;;;;13.30;99.90;;;;;;5115228;27;19927;-74
2023/09/30 07:54:26;;;;;;;;;;;13.40;99.90;;;;;;5099358;28;20322;-74
2023/09/30 07:56:52;;;;;;;;;;;13.60;99.90;;;;;;5100135;27;19928;-74
2023/09/30 07:59:17;;;;;;;;;;;13.70;99.90;;;;;;5096820;27;20470;-74
2023/09/30 08:01:43;;;;;;;;;;;14.00;99.90;;;;;;5094898;28;20324;-75
2023/09/30 08:04:09;;;;;;;;;;;14.10;99.90;;;;;;5098516;28;19934;-74
2023/09/30 08:06:34;;;;;;;;;;;14.30;99.90;;;;;;5083359;27;20328;-75
2023/09/30 08:09:00;;;;;;;;;;;14.50;99.90;;;;;;5118545;27;19927;-74
2023/09/30 08:11:30;;;;;;;;;;;14.60;99.90;;;;;;5115063;27;19928;-74
2023/09/30 08:13:56;;;;;;;;;;;14.80;99.90;;;;;;5099819;28;19939;-74
2023/09/30 08:16:21;;;;;;;;;;;14.90;99.90;;;;;;5098221;28;19928;-74
2023/09/30 08:18:47;;;;;;;;;;;15.10;99.90;;;;;;5084181;28;20508;-74
2023/09/30 08:21:13;;;;;;;;;;;15.20;99.90;;;;;;5096410;28;20322;-75
2023/09/30 08:23:39;;;;;;;;;;;15.30;99.90;;;;;;5085522;28;19971;-76
2023/09/30 08:26:05;;;;;;;;;;;15.40;99.90;;;;;;5095668;28;20502;-75
2023/09/30 08:28:31;;;;;;;;;;;15.50;99.90;;;;;;5082999;28;20432;-75
2023/09/30 08:31:01;;;;;;;;;;;15.50;99.90;;;;;;5111211;27;20018;-75
2023/09/30 08:33:30;;;;;;;;;;;15.70;99.90;;;;;;5095572;28;19949;-76
2023/09/30 08:35:56;;;;;;;;;;;15.80;99.90;;;;;;5100900;27;19932;-76
2023/09/30 08:38:22;;;;;;;;;;;15.90;99.90;;;;;;5083005;28;19927;-76
2023/09/30 08:40:51;;;;;;;;;;;16.00;99.90;;;;;;5099338;28;19936;-76
2023/09/30 08:43:19;;;;;;;;;;;16.10;99.90;;;;;;5095907;28;19932;-76
2023/09/30 08:45:46;;;;;;;;;;;16.10;99.90;;;;;;5100680;28;20071;-76
2023/09/30 08:48:12;;;;;;;;;;;16.20;99.90;;;;;;5132202;27;19938;-77
2023/09/30 08:50:40;;;;;;;;;;;16.30;99.90;;;;;;5117851;27;19924;-76
2023/09/30 08:53:06;;;;;;;;;;;16.30;99.90;;;;;;5131613;27;20588;-77
2023/09/30 08:55:33;;;;;;;;;;;16.40;99.90;;;;;;5082095;28;20386;-76
2023/09/30 08:57:59;;;;;;;;;;;16.40;99.90;;;;;;5096915;28;19943;-77
2023/09/30 09:00:25;;;;;;;;;;;16.60;99.90;;;;;;5096489;28;20449;-77
2023/09/30 09:02:50;;;;;;;;;;;16.60;99.90;;;;;;5098168;28;19939;-77
2023/09/30 09:05:16;;;;;;;;;;;16.70;99.90;;;;;;5096354;27;19990;-77
2023/09/30 09:07:43;;;;;;;;;;;16.80;99.90;;;;;;5099470;28;19947;-77
2023/09/30 09:10:15;;;;;;;;;;;16.90;99.90;;;;;;5081792;28;20393;-75
2023/09/30 09:12:40;;;;;;;;;;;17.10;99.90;;;;;;5114804;27;20484;-77
2023/09/30 09:15:07;;;;;;;;;;;17.10;99.90;;;;;;5097161;27;19931;-77
2023/09/30 09:17:43;;;;;;;;;;;17.20;99.90;;;;;;5082297;28;19924;-77
2023/09/30 09:20:10;;;;;;;;;;;17.30;99.90;;;;;;5081768;28;20290;-77
2023/09/30 09:22:43;;;;;;;;;;;17.30;99.90;;;;;;5082089;28;20014;-75
2023/09/30 09:25:09;;;;;;;;;;;17.40;99.90;;;;;;5097444;28;20398;-76
2023/09/30 09:27:36;;;;;;;;;;;17.40;99.90;;;;;;5098077;28;19970;-76
2023/09/30 09:30:20;;;;;;;;;;;17.40;99.90;;;;;;5082793;28;20370;-76
2023/09/30 09:33:05;;;;;;;;;;;17.40;99.90;;;;;;5131308;27;19931;-76
2023/09/30 09:35:32;;;;;;;;;;;17.50;99.90;;;;;;5112760;27;20011;-76
2023/09/30 09:37:59;;;;;;;;;;;17.60;99.90;;;;;;5081964;28;19927;-76
2023/09/30 09:40:26;;;;;;;;;;;17.60;99.90;;;;;;5128623;27;20061;-75
2023/09/30 09:42:54;;;;;;;;;;;17.60;99.90;;;;;;5130164;27;19935;-76
2023/09/30 09:45:24;;;;;;;;;;;17.70;99.90;;;;;;5098782;27;19927;-75
2023/09/30 09:47:51;;;;;;;;;;;17.70;99.90;;;;;;5115031;27;19924;-76
2023/09/30 09:50:18;;;;;;;;;;;17.70;99.90;;;;;;5111944;27;20309;-78
2023/09/30 09:52:44;;;;;;;;;;;17.80;99.90;;;;;;5098214;27;20374;-78
2023/09/30 09:55:10;;;;;;;;;;;17.80;99.90;;;;;;5081673;28;20452;-78
2023/09/30 09:57:37;;;;;;;;;;;17.80;99.90;;;;;;5079478;28;19968;-78
2023/09/30 10:00:05;;;;;;;;;;;17.90;99.90;;;;;;5082984;28;19932;-78
2023/09/30 10:02:32;;;;;;;;;;;17.90;99.90;;;;;;5098316;28;20010;-79
2023/09/30 10:04:59;;;;;;;;;;;18.00;99.90;;;;;;5097260;28;19981;-79
2023/09/30 10:07:29;;;;;;;;;;;18.10;99.90;;;;;;5077251;28;20402;-79
2023/09/30 10:09:57;;;;;;;;;;;18.00;99.90;;;;;;5098918;28;20393;-79
2023/09/30 10:12:23;;;;;;;;;;;18.10;99.90;;;;;;5077985;28;19939;-79
2023/09/30 10:14:49;;;;;;;;;;;18.20;99.90;;;;;;5082522;28;19924;-79
2023/09/30 10:17:17;;;;;;;;;;;18.30;99.90;;;;;;5094275;28;19954;-79
2023/09/30 10:20:02;;;;;;;;;;;18.30;99.90;;;;;;5098976;28;19931;-79
2023/09/30 10:22:27;;;;;;;;;;;18.30;99.90;;;;;;5077813;28;20428;-80
2023/09/30 10:24:55;;;;;;;;;;;18.40;99.90;;;;;;5099632;28;19936;-79
2023/09/30 10:27:37;;;;;;;;;;;18.50;99.90;;;;;;5096221;28;19927;-80
2023/09/30 10:30:05;;;;;;;;;;;18.60;99.90;;;;;;5080545;28;19934;-79
2023/09/30 10:32:50;;;;;;;;;;;18.70;99.90;;;;;;5079950;28;19971;-80
2023/09/30 10:35:31;;;;;;;;;;;18.70;99.90;;;;;;5125509;27;20013;-78
2023/09/30 10:38:15;;;;;;;;;;;18.80;99.90;;;;;;5099869;28;20013;-79
2023/09/30 10:40:41;;;;;;;;;;;18.90;99.90;;;;;;5096912;28;20273;-78
2023/09/30 10:43:26;;;;;;;;;;;19.00;99.90;;;;;;5112220;27;19976;-79
2023/09/30 10:45:52;;;;;;;;;;;19.00;99.90;;;;;;5094288;28;19934;-78
2023/09/30 10:48:41;;;;;;;;;;;19.10;99.90;;;;;;5098941;28;19927;-79
2023/09/30 10:51:14;;;;;;;;;;;19.20;99.90;;;;;;5130595;27;19930;-79
2023/09/30 10:53:52;;;;;;;;;;;19.30;99.90;;;;;;5125470;27;19931;-79
2023/09/30 10:56:19;;;;;;;;;;;19.30;99.90;;;;;;5098472;28;19928;-80
2023/09/30 10:58:45;;;;;;;;;;;19.40;99.90;;;;;;5104713;28;19935;-80
2023/09/30 11:01:12;;;;;;;;;;;19.40;99.90;;;;;;5100592;28;20241;-80
2023/09/30 11:03:37;;;;;;;;;;;19.30;99.90;;;;;;5084725;28;19950;-80
2023/09/30 11:06:04;;;;;;;;;;;19.30;99.90;;;;;;5081496;28;19924;-80
2023/09/30 11:08:29;;;;;;;;;;;19.30;99.90;;;;;;5097254;28;19927;-79
2023/09/30 11:10:56;;;;;;;;;;;19.30;99.90;;;;;;5100051;28;19935;-79
2023/09/30 11:13:21;;;;;;;;;;;19.20;99.90;;;;;;5081385;28;19924;-79
2023/09/30 11:15:47;;;;;;;;;;;19.10;99.90;;;;;;5082195;28;19935;-80
2023/09/30 11:18:14;;;;;;;;;;;18.90;99.90;;;;;;5106001;27;19924;-80
2023/09/30 11:20:39;;;;;;;;;;;18.90;99.90;;;;;;5090093;28;19931;-78
2023/09/30 11:23:06;;;;;;;;;;;18.70;99.90;;;;;;5087604;27;19924;-79
2023/09/30 11:25:34;;;;;;;;;;;18.70;99.90;;;;;;5105926;27;20392;-79
2023/09/30 11:28:32;;;;;;;;;;;18.60;99.90;;;;;;5104270;27;19967;-79
2023/09/30 11:30:59;;;;;;;;;;;18.60;99.90;;;;;;5039049;28;20406;-80
2023/09/30 11:33:25;;;;;;;;;;;18.70;99.90;;;;;;5137141;27;19931;-79
2023/09/30 11:36:06;;;;;;;;;;;18.80;99.90;;;;;;5087499;27;19923;-79
2023/09/30 11:38:32;;;;;;;;;;;18.80;99.90;;;;;;5087739;27;20365;-79
2023/09/30 11:40:59;;;;;;;;;;;18.80;99.90;;;;;;5104706;27;20377;-80
2023/09/30 11:43:24;;;;;;;;;;;18.70;99.90;;;;;;5103019;27;19970;-80
2023/09/30 11:45:50;;;;;;;;;;;18.60;99.90;;;;;;5103908;27;20435;-79
2023/09/30 11:48:19;;;;;;;;;;;18.60;99.90;;;;;;5102376;27;19924;-79
2023/09/30 11:50:46;;;;;;;;;;;18.40;99.90;;;;;;5087588;27;20014;-80
2023/09/30 11:53:20;;;;;;;;;;;18.40;99.90;;;;;;5102602;27;19945;-79
2023/09/30 11:55:46;;;;;;;;;;;18.40;99.90;;;;;;5078595;28;20378;-80
2023/09/30 11:58:15;;;;;;;;;;;18.50;99.90;;;;;;5102365;27;19932;-80
2023/09/30 12:00:41;;;;;;;;;;;18.50;99.90;;;;;;5102662;27;19959;-80
2023/09/30 12:03:06;;;;;;;;;;;18.70;99.90;;;;;;5107147;28;20391;-80
2023/09/30 12:05:32;;;;;;;;;;;18.80;99.90;;;;;;5108254;27;19935;-80
2023/09/30 12:07:58;;;;;;;;;;;18.90;99.90;;;;;;5120383;27;20022;-80
2023/09/30 12:10:23;;;;;;;;;;;19.10;99.90;;;;;;5119568;27;19940;-80
2023/09/30 12:12:49;;;;;;;;;;;19.20;99.90;;;;;;5089663;28;19924;-81
2023/09/30 12:15:19;;;;;;;;;;;19.30;99.90;;;;;;5105602;27;19931;-81
2023/09/30 12:17:45;;;;;;;;;;;19.40;99.90;;;;;;5089834;28;19927;-81
2023/09/30 12:20:14;;;;;;;;;;;19.30;99.90;;;;;;5123353;27;19931;-81
2023/09/30 12:22:39;;;;;;;;;;;19.30;99.90;;;;;;5107259;27;19928;-81
2023/09/30 12:25:06;;;;;;;;;;;19.40;99.90;;;;;;5102568;27;19931;-81
2023/09/30 12:27:34;;;;;;;;;;;19.40;99.90;;;;;;5102890;27;19927;-81
2023/09/30 12:29:59;;;;;;;;;;;19.60;99.90;;;;;;5099435;28;19928;-81
2023/09/30 12:32:26;;;;;;;;;;;19.60;99.90;;;;;;5099181;28;19977;-82
2023/09/30 12:34:53;;;;;;;;;;;19.60;99.90;;;;;;5101253;28;19928;-81
2023/09/30 12:37:18;;;;;;;;;;;19.50;99.90;;;;;;5085094;28;19954;-82
2023/09/30 12:39:45;;;;;;;;;;;19.50;99.90;;;;;;5085335;28;20399;-81
2023/09/30 12:42:12;;;;;;;;;;;19.50;99.90;;;;;;5100324;28;19928;-79
2023/09/30 12:44:38;;;;;;;;;;;19.60;99.90;;;;;;5100513;28;19931;-78
2023/09/30 12:47:05;;;;;;;;;;;19.60;99.90;;;;;;5104083;28;20050;-78
2023/09/30 12:49:31;;;;;;;;;;;19.60;99.90;;;;;;5086087;28;19924;-79
2023/09/30 12:51:58;;;;;;;;;;;19.60;99.90;;;;;;5084182;28;19927;-79
2023/09/30 12:54:24;;;;;;;;;;;19.50;99.90;;;;;;5083950;28;19928;-78
2023/09/30 12:56:50;;;;;;;;;;;19.60;99.90;;;;;;5084423;28;20393;-79
2023/09/30 12:59:17;;;;;;;;;;;19.60;99.90;;;;;;5104469;28;19931;-79
2023/09/30 13:01:44;;;;;;;;;;;19.60;99.90;;;;;;5099996;28;19924;-78
2023/09/30 13:04:11;;;;;;;;;;;19.60;99.90;;;;;;5104136;28;19924;-78
2023/09/30 13:06:36;;;;;;;;;;;19.60;99.90;;;;;;5088473;28;19947;-78
2023/09/30 13:09:04;;;;;;;;;;;19.60;99.90;;;;;;5098552;28;19923;-78
2023/09/30 13:11:30;;;;;;;;;;;19.60;99.90;;;;;;5085890;28;19931;-78
2023/09/30 13:13:56;;;;;;;;;;;19.50;99.90;;;;;;5117288;27;19931;-79
2023/09/30 13:16:22;;;;;;;;;;;19.50;99.90;;;;;;5096958;28;20409;-78
2023/09/30 13:18:47;;;;;;;;;;;19.60;99.90;;;;;;5102465;27;19924;-79
2023/09/30 13:21:13;;;;;;;;;;;19.60;99.90;;;;;;5101191;27;19942;-78
2023/09/30 13:23:39;;;;;;;;;;;19.60;99.90;;;;;;5085147;28;19923;-81
2023/09/30 13:26:05;;;;;;;;;;;19.60;99.90;;;;;;5086765;28;19923;-81
2023/09/30 13:28:30;;;;;;;;;;;19.50;99.90;;;;;;5119728;27;20046;-78
2023/09/30 13:30:56;;;;;;;;;;;19.50;99.90;;;;;;5095507;28;20023;-79
2023/09/30 13:33:22;;;;;;;;;;;19.50;99.90;;;;;;5135683;27;19935;-78
2023/09/30 13:35:47;;;;;;;;;;;19.40;99.90;;;;;;5080986;28;19927;-79
2023/09/30 13:38:13;;;;;;;;;;;19.40;99.90;;;;;;5083842;28;19923;-78
2023/09/30 13:40:39;;;;;;;;;;;19.30;99.90;;;;;;5082732;28;20378;-79
2023/09/30 13:43:05;;;;;;;;;;;19.30;99.90;;;;;;5101747;28;19924;-78
2023/09/30 13:45:31;;;;;;;;;;;19.30;99.90;;;;;;5104716;28;19931;-78
2023/09/30 13:47:56;;;;;;;;;;;19.30;99.90;;;;;;5086086;28;19928;-79
2023/09/30 13:50:22;;;;;;;;;;;19.30;99.90;;;;;;5104105;28;19928;-78
2023/09/30 13:52:48;;;;;;;;;;;19.20;99.90;;;;;;5087721;27;19928;-78
2023/09/30 13:55:18;;;;;;;;;;;19.20;99.90;;;;;;5101744;28;19924;-77
2023/09/30 13:57:47;;;;;;;;;;;19.10;99.90;;;;;;5102300;28;20389;-79
2023/09/30 14:00:13;;;;;;;;;;;19.00;99.90;;;;;;5103561;28;20290;-77
2023/09/30 14:02:39;;;;;;;;;;;18.90;99.90;;;;;;5088022;27;20011;-78
2023/09/30 14:05:08;;;;;;;;;;;18.90;99.90;;;;;;5097176;28;20386;-79
2023/09/30 14:07:34;;;;;;;;;;;18.90;99.90;;;;;;5085671;28;19928;-79
2023/09/30 14:10:00;;;;;;;;;;;18.90;99.90;;;;;;5085428;28;19928;-79
2023/09/30 14:12:26;;;;;;;;;;;18.90;99.90;;;;;;5100510;27;19924;-79
2023/09/30 14:14:51;;;;;;;;;;;18.90;99.90;;;;;;5102956;28;19924;-79